Flugplatz Karlsruhe Baden-Baden

Bericht für EDSB

vom 28.09. um 23:20 UTC

Wind 2 kt aus 130°

Sichtweite 10 km oder mehr

aufgelockert bewölkt in 4100 ft

aufgelockert bewölkt in 7800 ft

Temperatur 12.0°C

Taupunkt 10.0°C

Luftfeuchtigkeit 88%

Luftdruck 1019 hPa

EDSB 282320Z AUTO 13002KT 9999 SCT041/// SCT078/// 12/10 Q1019

Prognose für EDSB

vom 28.09. um 23:00 UTC

Zwischen 00:00 UTC und 02:00 UTC

variable Windrichtung mit 2 kt

Sichtweite 10 km oder mehr

keine signifikanten Wettererscheinungen

keine Wolken


Zwischen 02:00 und 04:00 UTC übergehend zu

Wind 7 kt aus 210°

Sichtweite 10 km oder mehr

keine signifikanten Wettererscheinungen

keine Wolken


Zwischen 06:00 und 08:00 UTC übergehend zu

Wind 12 kt aus 210°

Sichtweite 10 km oder mehr

keine signifikanten Wettererscheinungen

keine Wolken


Zwischen 10:00 UTC und 13:00 UTC zeitweise

Wind 20 kt aus 210° in Böen 30 kt

Sichtweite 4000 m

Regenschauer

aufgebrochene Bewölkung in 3000 ft


Zwischen 15:00 und 17:00 UTC übergehend zu

Wind 7 kt aus 210°

Sichtweite 10 km oder mehr

keine signifikanten Wettererscheinungen

keine Wolken

TAF EDSB 282300Z 2900/2924 VRB02KT CAVOK BECMG 2902/2904 21007KT BECMG 2906/2908 21012KT TEMPO 2910/2913 21020G30KT 4000 SHRA BKN030CB BECMG 2915/2917 21007KT
Impressum